Time;durP1;ratioP1;P1;durP2;ratioP2;P2;SDS_P1;SDS_P2;PMS_P1;PMS_P2;Temp;Humidity;BMP_temperature;BMP_pressure;BME280_temperature;BME280_humidity;BME280_pressure;Samples;Min_cycle;Max_cycle;Signal;HPM_P1;HPM_P2
2023/07/30 00:00:28;;;;;;;13.67;3.00;;;;;;;16.22;100.00;155483.56;5082011;28;20574;-75
2023/07/30 00:02:53;;;;;;;16.73;4.17;;;;;;;16.21;100.00;155480.97;5086190;28;20025;-73
2023/07/30 00:05:19;;;;;;;16.97;2.97;;;;;;;16.21;100.00;155479.66;5087412;28;20028;-74
2023/07/30 00:07:44;;;;;;;13.50;3.17;;;;;;;16.18;100.00;155471.88;5086434;28;20496;-74
2023/07/30 00:10:10;;;;;;;11.20;3.73;;;;;;;16.10;100.00;155451.03;5084804;28;20040;-74
2023/07/30 00:12:35;;;;;;;19.17;4.27;;;;;;;16.08;100.00;155447.19;5071795;28;20024;-74
2023/07/30 00:15:00;;;;;;;10.03;3.70;;;;;;;16.13;100.00;155458.88;5069509;28;20067;-73
2023/07/30 00:17:26;;;;;;;15.33;4.17;;;;;;;16.09;100.00;155449.78;5062948;28;20109;-74
2023/07/30 00:19:51;;;;;;;18.23;2.93;;;;;;;16.03;100.00;155434.19;5093777;28;20032;-74
2023/07/30 00:22:17;;;;;;;17.90;3.00;;;;;;;16.02;100.00;155431.53;5085671;28;20069;-73
2023/07/30 00:24:42;;;;;;;12.37;3.73;;;;;;;16.04;100.00;155435.44;5086057;28;20052;-74
2023/07/30 00:27:07;;;;;;;15.67;3.80;;;;;;;15.98;100.00;155421.16;5092884;28;20383;-76
2023/07/30 00:29:33;;;;;;;24.87;4.53;;;;;;;16.02;100.00;155430.25;5088540;28;20055;-74
2023/07/30 00:31:58;;;;;;;15.13;3.37;;;;;;;15.96;100.00;155415.94;5091267;28;20032;-74
2023/07/30 00:34:24;;;;;;;14.03;3.00;;;;;;;15.96;100.00;155414.66;5072565;28;20024;-74
2023/07/30 00:36:49;;;;;;;16.70;3.40;;;;;;;15.97;100.00;155418.59;5084075;28;20032;-74
2023/07/30 00:39:15;;;;;;;13.00;3.13;;;;;;;16.01;100.00;155427.66;5088701;28;20057;-74
2023/07/30 00:41:40;;;;;;;20.00;4.27;;;;;;;16.04;100.00;155435.44;5094165;28;20032;-74
2023/07/30 00:44:06;;;;;;;31.67;4.43;;;;;;;16.10;100.00;155452.38;5092135;28;20518;-74
2023/07/30 00:46:31;;;;;;;18.83;4.40;;;;;;;16.14;100.00;155461.47;5074088;28;20102;-73
2023/07/30 00:48:57;;;;;;;14.63;4.30;;;;;;;16.19;100.00;155474.47;5088835;28;20445;-74
2023/07/30 00:51:24;;;;;;;20.17;4.73;;;;;;;16.16;100.00;155466.69;5086545;28;20032;-74
2023/07/30 00:53:49;;;;;;;13.70;3.40;;;;;;;16.19;100.00;155474.47;5086200;28;20036;-73
2023/07/30 00:56:16;;;;;;;21.83;4.23;;;;;;;16.21;100.00;155480.97;5085275;28;20028;-74
2023/07/30 00:58:43;;;;;;;18.35;4.07;;;;;;;16.21;100.00;155480.97;5085816;28;20490;-74
2023/07/30 01:01:09;;;;;;;19.13;3.70;;;;;;;16.22;100.00;155483.56;5086263;28;20024;-71
2023/07/30 01:03:35;;;;;;;17.43;4.07;;;;;;;16.26;100.00;155492.66;5087007;28;20462;-71
2023/07/30 01:06:01;;;;;;;14.73;3.47;;;;;;;16.29;100.00;155501.78;5075560;28;20036;-70
2023/07/30 01:08:26;;;;;;;19.85;4.95;;;;;;;16.29;100.00;155500.47;5085901;28;20078;-71
2023/07/30 01:10:53;;;;;;;16.20;4.03;;;;;;;16.29;100.00;155500.47;5074350;28;20459;-72
2023/07/30 01:13:19;;;;;;;29.08;4.72;;;;;;;16.30;100.00;155503.06;5070792;28;20490;-71
2023/07/30 01:15:45;;;;;;;19.50;4.10;;;;;;;16.31;100.00;155505.66;5090683;28;20065;-71
2023/07/30 01:18:10;;;;;;;23.23;4.47;;;;;;;16.32;100.00;155508.31;5086360;28;20035;-71
2023/07/30 01:20:36;;;;;;;20.33;4.13;;;;;;;16.30;100.00;155503.06;5087036;28;20048;-71
2023/07/30 01:23:01;;;;;;;20.20;4.40;;;;;;;16.32;100.00;155508.31;5087971;28;20046;-70
2023/07/30 01:25:35;;;;;;;21.53;4.00;;;;;;;16.36;100.00;155520.00;5087738;28;20373;-71
2023/07/30 01:28:04;;;;;;;22.70;4.15;;;;;;;16.37;100.00;155521.25;5085065;28;20502;-70
2023/07/30 01:30:40;;;;;;;22.38;5.30;;;;;;;16.40;100.00;155530.47;5086740;28;20020;-70
2023/07/30 01:33:06;;;;;;;26.02;4.43;;;;;;;16.40;100.00;155530.47;5073801;28;20028;-71
2023/07/30 01:35:32;;;;;;;20.90;4.93;;;;;;;16.36;100.00;155518.66;5083871;28;20472;-71
2023/07/30 01:37:58;;;;;;;21.50;4.33;;;;;;;16.42;100.00;155534.31;5082594;28;20039;-71
2023/07/30 01:40:24;;;;;;;28.40;5.18;;;;;;;16.42;100.00;155535.63;5070636;28;20692;-71
2023/07/30 01:42:50;;;;;;;30.40;4.53;;;;;;;16.43;100.00;155538.22;5085189;28;20055;-72
2023/07/30 01:45:16;;;;;;;25.30;4.93;;;;;;;16.45;100.00;155542.16;5069252;28;20276;-72
2023/07/30 01:47:42;;;;;;;23.40;4.97;;;;;;;16.44;100.00;155540.81;5083332;28;20074;-72
2023/07/30 01:50:08;;;;;;;;;;;;;;;16.45;100.00;155542.16;5051226;28;20086;-71
2023/07/30 01:52:34;;;;;;;24.95;5.10;;;;;;;16.44;100.00;155540.81;5087053;28;19912;-71
2023/07/30 01:55:00;;;;;;;25.88;5.35;;;;;;;16.47;100.00;155547.34;5085210;28;20522;-71
2023/07/30 01:57:27;;;;;;;28.58;5.32;;;;;;;16.46;100.00;155544.72;5071773;28;20053;-71
2023/07/30 01:59:52;;;;;;;;;;;;;;;16.40;100.00;155529.13;5084527;28;20032;-70
2023/07/30 02:02:18;;;;;;;37.17;6.28;;;;;;;16.42;100.00;155535.63;5072981;28;19918;-71
2023/07/30 02:04:43;;;;;;;30.33;4.70;;;;;;;16.42;100.00;155534.31;5072173;28;20498;-72
2023/07/30 02:07:09;;;;;;;29.00;5.13;;;;;;;16.43;100.00;155536.97;5067807;28;20106;-70
2023/07/30 02:09:34;;;;;;;28.23;6.07;;;;;;;16.43;100.00;155536.97;5085950;28;20024;-71
2023/07/30 02:11:59;;;;;;;33.83;5.30;;;;;;;16.41;100.00;155531.72;5083541;28;20114;-71
2023/07/30 02:14:25;;;;;;;39.00;6.93;;;;;;;16.36;100.00;155518.66;5074288;28;20395;-74
2023/07/30 02:16:50;;;;;;;33.07;4.87;;;;;;;16.29;100.00;155500.47;5072064;28;20028;-74
2023/07/30 02:19:16;;;;;;;43.97;8.00;;;;;;;16.25;100.00;155490.06;5073141;28;20023;-74
2023/07/30 02:21:42;;;;;;;30.90;6.83;;;;;;;16.22;100.00;155482.28;5082711;28;20024;-74
2023/07/30 02:24:10;;;;;;;40.92;5.93;;;;;;;16.23;100.00;155486.16;5088686;28;20040;-74
2023/07/30 02:26:36;;;;;;;29.55;5.68;;;;;;;16.20;100.00;155477.06;5087154;28;20081;-73
2023/07/30 02:29:02;;;;;;;35.70;5.87;;;;;;;16.15;100.00;155464.06;5086875;28;20472;-74
2023/07/30 02:31:27;;;;;;;33.40;6.73;;;;;;;16.13;100.00;155460.19;5086627;28;20206;-73
2023/07/30 02:33:52;;;;;;;31.43;6.43;;;;;;;16.11;100.00;155453.69;5084858;28;20451;-73
2023/07/30 02:36:18;;;;;;;40.70;6.30;;;;;;;16.12;100.00;155457.53;5065423;28;20021;-74
2023/07/30 02:38:43;;;;;;;24.20;5.20;;;;;;;16.08;100.00;155447.19;5071024;28;20031;-74
2023/07/30 02:41:09;;;;;;;35.93;6.60;;;;;;;16.08;100.00;155445.84;5086456;28;20050;-74
2023/07/30 02:43:34;;;;;;;38.73;6.23;;;;;;;16.03;100.00;155432.84;5072462;28;20371;-73
2023/07/30 02:46:00;;;;;;;34.57;6.13;;;;;;;16.05;100.00;155438.03;5086973;28;20039;-74
2023/07/30 02:48:25;;;;;;;43.20;6.23;;;;;;;16.05;100.00;155438.03;5084600;28;20474;-74
2023/07/30 02:50:50;;;;;;;26.97;6.47;;;;;;;16.12;100.00;155456.28;5081276;28;20063;-73
2023/07/30 02:53:16;;;;;;;33.67;5.83;;;;;;;16.10;100.00;155452.38;5084754;28;20103;-74
2023/07/30 02:55:41;;;;;;;33.07;6.47;;;;;;;16.16;100.00;155466.69;5086312;28;20028;-74
2023/07/30 02:58:06;;;;;;;29.07;5.40;;;;;;;16.07;100.00;155444.53;5079444;28;20463;-74
2023/07/30 03:00:32;;;;;;;36.10;7.17;;;;;;;16.12;100.00;155456.28;5088550;28;20039;-73
2023/07/30 03:02:57;;;;;;;36.90;5.97;;;;;;;16.14;100.00;155461.47;5084794;28;20023;-73
2023/07/30 03:05:23;;;;;;;42.57;7.67;;;;;;;16.18;100.00;155473.13;5083572;28;20115;-73
2023/07/30 03:07:48;;;;;;;44.10;7.53;;;;;;;16.18;100.00;155473.13;5086668;28;20230;-74
2023/07/30 03:10:13;;;;;;;38.27;7.57;;;;;;;16.24;100.00;155487.47;5085756;28;20504;-74
2023/07/30 03:12:39;;;;;;;46.80;7.30;;;;;;;16.24;100.00;155487.47;5089768;28;20035;-74
2023/07/30 03:15:05;;;;;;;37.90;8.03;;;;;;;16.27;100.00;155496.56;5082231;28;20035;-73
2023/07/30 03:17:30;;;;;;;38.87;6.57;;;;;;;16.28;100.00;155499.16;5089272;28;20074;-73
2023/07/30 03:19:56;;;;;;;38.70;7.30;;;;;;;16.28;100.00;155499.16;5078418;28;20356;-73
2023/07/30 03:22:21;;;;;;;37.83;5.97;;;;;;;16.32;100.00;155508.31;5084619;28;20032;-74
2023/07/30 03:24:47;;;;;;;36.10;6.47;;;;;;;16.28;100.00;155499.16;5086180;28;20092;-73
2023/07/30 03:27:13;;;;;;;45.97;7.00;;;;;;;16.28;100.00;155497.88;5063549;28;20119;-73
2023/07/30 03:29:38;;;;;;;37.73;6.63;;;;;;;16.29;100.00;155501.78;5085418;28;20055;-73
2023/07/30 03:32:05;;;;;;;48.47;8.00;;;;;;;16.29;100.00;155500.47;5066935;28;20020;-74
2023/07/30 03:34:31;;;;;;;41.10;7.07;;;;;;;16.30;100.00;155504.41;5081958;28;20047;-74
2023/07/30 03:36:56;;;;;;;48.87;7.97;;;;;;;16.29;100.00;155500.47;5084123;28;20020;-73
2023/07/30 03:39:22;;;;;;;42.93;8.13;;;;;;;16.28;100.00;155499.16;5069928;28;20035;-74
2023/07/30 03:41:47;;;;;;;36.17;5.97;;;;;;;16.27;100.00;155496.56;5089397;28;20039;-73
2023/07/30 03:44:12;;;;;;;40.97;7.70;;;;;;;16.34;100.00;155513.47;5072472;28;20573;-73
2023/07/30 03:46:38;;;;;;;31.10;6.47;;;;;;;16.35;100.00;155516.06;5084850;28;20016;-73
2023/07/30 03:49:03;;;;;;;55.13;9.33;;;;;;;16.40;100.00;155529.13;5086238;28;20024;-73
2023/07/30 03:51:29;;;;;;;43.43;8.63;;;;;;;16.39;100.00;155526.53;5087574;28;20584;-73
2023/07/30 03:53:54;;;;;;;48.07;8.97;;;;;;;16.34;100.00;155513.47;5089081;28;20524;-72
2023/07/30 03:56:19;;;;;;;38.27;7.93;;;;;;;16.32;100.00;155508.31;5089626;28;20186;-73
2023/07/30 03:58:45;;;;;;;58.00;8.67;;;;;;;16.40;100.00;155529.13;5087438;28;20035;-73
2023/07/30 04:01:11;;;;;;;41.27;8.37;;;;;;;16.36;100.00;155520.00;5088938;28;20394;-73
2023/07/30 04:03:36;;;;;;;39.67;7.23;;;;;;;16.32;100.00;155508.31;5069512;28;20167;-73
2023/07/30 04:06:02;;;;;;;36.73;7.60;;;;;;;16.33;100.00;154951.84;5084435;28;20846;-74
2023/07/30 04:08:27;;;;;;;37.20;6.67;;;;;;;16.30;100.00;154291.47;5087302;28;20162;-73
2023/07/30 04:10:52;;;;;;;45.57;7.47;;;;;;;16.31;100.00;153234.19;5089115;28;20107;-73
2023/07/30 04:13:18;;;;;;;48.80;8.37;;;;;;;16.29;100.00;152865.09;5090435;28;20020;-74
2023/07/30 04:15:43;;;;;;;41.47;6.53;;;;;;;16.30;100.00;151050.97;5087866;28;20126;-73
2023/07/30 04:18:09;;;;;;;42.03;8.73;;;;;;;16.30;100.00;150937.50;5070977;28;20101;-74
2023/07/30 04:20:34;;;;;;;42.80;7.93;;;;;;;16.33;100.00;151106.16;5083987;28;20036;-73
2023/07/30 04:23:00;;;;;;;52.30;7.80;;;;;;;16.30;100.00;150271.53;5074664;28;20060;-72
2023/07/30 04:25:25;;;;;;;37.63;7.70;;;;;;;16.31;100.00;148804.00;5088874;28;20043;-74
2023/07/30 04:27:50;;;;;;;48.07;7.93;;;;;;;16.27;100.00;146185.41;5072661;28;20060;-73
2023/07/30 04:30:16;;;;;;;38.03;6.80;;;;;;;16.29;100.00;144401.72;5054083;28;20113;-73
2023/07/30 04:32:41;;;;;;;37.13;8.67;;;;;;;16.29;100.00;144045.31;5073522;28;20029;-73
2023/07/30 04:35:07;;;;;;;34.80;7.67;;;;;;;16.32;100.00;144051.31;5074642;28;20070;-74
2023/07/30 04:37:33;;;;;;;48.07;8.80;;;;;;;16.27;100.00;142967.81;5082406;28;20035;-73
2023/07/30 04:39:58;;;;;;;44.50;7.70;;;;;;;16.26;100.00;144394.44;5084646;28;20096;-74
2023/07/30 04:42:23;;;;;;;54.37;8.37;;;;;;;16.29;100.00;142257.66;5073156;28;20414;-73
2023/07/30 04:44:49;;;;;;;37.67;6.67;;;;;;;16.30;100.00;141901.38;5089541;28;20133;-74
2023/07/30 04:47:14;;;;;;;45.50;8.93;;;;;;;16.36;100.00;142988.13;5074268;28;20359;-73
2023/07/30 04:49:40;;;;;;;38.87;7.37;;;;;;;16.38;100.00;144781.16;5087523;28;20036;-73
2023/07/30 04:52:09;;;;;;;53.07;8.23;;;;;;;16.39;100.00;147337.22;5086974;28;20031;-74
2023/07/30 04:54:37;;;;;;;45.45;7.35;;;;;;;16.43;100.00;149110.94;5086070;28;20027;-73
2023/07/30 04:57:03;;;;;;;38.40;7.20;;;;;;;16.45;100.00;151580.09;5072957;28;20024;-73
2023/07/30 04:59:28;;;;;;;33.57;6.33;;;;;;;16.48;100.00;152751.31;5092326;28;20475;-73
2023/07/30 05:01:54;;;;;;;43.40;8.33;;;;;;;16.50;100.00;154033.69;5082930;28;20101;-73
2023/07/30 05:04:19;;;;;;;39.30;7.97;;;;;;;16.54;100.00;155506.72;5092408;28;20031;-73
2023/07/30 05:06:45;;;;;;;38.60;7.03;;;;;;;16.56;100.00;155572.06;5072667;28;20081;-73
2023/07/30 05:09:11;;;;;;;34.90;6.70;;;;;;;16.61;100.00;155583.78;5079321;28;20099;-73
2023/07/30 05:11:37;;;;;;;34.17;6.43;;;;;;;16.59;100.00;155578.59;5089767;28;20383;-74
2023/07/30 05:14:03;;;;;;;38.83;8.70;;;;;;;16.64;100.00;155591.59;5087699;28;20036;-73
2023/07/30 05:16:28;;;;;;;33.87;7.33;;;;;;;16.67;100.00;155599.38;5089477;28;20028;-73
2023/07/30 05:18:53;;;;;;;35.23;7.10;;;;;;;16.63;100.00;155590.28;5087939;28;20036;-73
2023/07/30 05:21:19;;;;;;;42.13;7.60;;;;;;;16.69;100.00;155605.88;5084007;28;20121;-73
2023/07/30 05:23:44;;;;;;;31.03;7.53;;;;;;;16.81;100.00;155635.81;5081843;28;20399;-73
2023/07/30 05:26:10;;;;;;;34.37;7.00;;;;;;;16.77;100.00;155625.38;5085499;28;20035;-73
2023/07/30 05:28:35;;;;;;;47.20;8.07;;;;;;;16.82;100.00;155639.69;5087103;28;20419;-74
2023/07/30 05:31:00;;;;;;;39.87;7.80;;;;;;;16.87;100.00;155652.69;5086477;28;20047;-73
2023/07/30 05:33:27;;;;;;;49.57;9.53;;;;;;;16.87;100.00;155651.41;5073719;28;20044;-73
2023/07/30 05:35:52;;;;;;;38.20;6.88;;;;;;;16.87;100.00;155652.69;5085872;28;20095;-73
2023/07/30 05:38:18;;;;;;;41.03;6.60;;;;;;;16.92;100.00;155665.69;5085663;28;20043;-73
2023/07/30 05:40:43;;;;;;;40.33;7.10;;;;;;;16.91;100.00;155663.09;5086292;28;20121;-73
2023/07/30 05:43:08;;;;;;;32.40;6.30;;;;;;;16.92;100.00;155665.69;5088118;28;20658;-71
2023/07/30 05:45:34;;;;;;;44.93;6.57;;;;;;;16.95;100.00;155673.53;5084012;28;20031;-72
2023/07/30 05:48:00;;;;;;;35.67;6.13;;;;;;;16.95;100.00;155672.22;5069730;28;20051;-71
2023/07/30 05:50:25;;;;;;;43.90;6.33;;;;;;;17.00;100.00;155686.53;5084533;28;20337;-71
2023/07/30 05:52:51;;;;;;;33.63;6.63;;;;;;;17.06;100.00;155700.84;5082726;28;20046;-71
2023/07/30 05:55:16;;;;;;;31.87;5.90;;;;;;;17.08;100.00;155706.06;5083371;28;20039;-72
2023/07/30 05:57:41;;;;;;;41.93;6.97;;;;;;;17.05;100.00;155698.25;5084906;28;20075;-71
2023/07/30 06:00:08;;;;;;;35.57;6.73;;;;;;;17.11;100.00;155713.84;5084009;28;20028;-71
2023/07/30 06:02:33;;;;;;;46.38;6.25;;;;;;;17.24;100.00;155748.97;5086368;28;20035;-71
2023/07/30 06:04:59;;;;;;;37.43;5.07;;;;;;;17.27;100.00;155755.50;5072284;28;20035;-71
2023/07/30 06:07:24;;;;;;;33.80;6.17;;;;;;;17.32;100.00;155768.50;5088551;28;20031;-72
2023/07/30 06:09:49;;;;;;;33.77;6.00;;;;;;;17.35;100.00;155777.59;5068639;28;20024;-72
2023/07/30 06:12:15;;;;;;;44.27;8.43;;;;;;;17.57;100.00;155833.66;5069583;28;20111;-71
2023/07/30 06:14:40;;;;;;;36.60;5.83;;;;;;;17.60;100.00;155841.50;5082970;28;20111;-71
2023/07/30 06:17:06;;;;;;;27.20;5.73;;;;;;;17.68;100.00;155862.28;5085150;28;20385;-71
2023/07/30 06:19:32;;;;;;;39.57;5.37;;;;;;;17.68;100.00;155863.63;5082676;28;20120;-71
2023/07/30 06:21:57;;;;;;;31.27;6.45;;;;;;;17.65;100.00;155855.78;5084689;28;20034;-71
2023/07/30 06:24:23;;;;;;;37.87;5.73;;;;;;;17.63;100.00;155849.28;5079410;28;20036;-71
2023/07/30 06:26:48;;;;;;;39.63;6.70;;;;;;;17.54;100.00;155825.81;5071616;28;20151;-71
2023/07/30 06:29:13;;;;;;;32.17;4.93;;;;;;;17.44;100.00;155801.09;5085862;28;20028;-71
2023/07/30 06:31:39;;;;;;;28.07;5.77;;;;;;;17.52;100.00;155820.63;5086875;28;20027;-71
2023/07/30 06:34:04;;;;;;;45.70;8.03;;;;;;;17.56;100.00;155831.06;5088638;28;20039;-72
2023/07/30 06:36:30;;;;;;;33.47;6.53;;;;;;;17.48;100.00;155810.22;5068263;28;20476;-71
2023/07/30 06:38:55;;;;;;;35.30;5.57;;;;;;;17.32;100.00;155769.84;5084482;28;20094;-71
2023/07/30 06:41:21;;;;;;;36.67;5.77;;;;;;;17.28;100.00;155759.41;5085383;28;20024;-74
2023/07/30 06:43:48;;;;;;;38.80;5.70;;;;;;;17.22;100.00;155743.78;5082101;28;20032;-73
2023/07/30 06:46:13;;;;;;;39.22;7.30;;;;;;;17.20;100.00;155737.28;5084853;28;20034;-71
2023/07/30 06:48:38;;;;;;;32.57;6.13;;;;;;;17.23;100.00;155745.13;5070059;28;20119;-73
2023/07/30 06:51:06;;;;;;;35.63;5.93;;;;;;;17.37;100.00;155781.53;5085927;28;20089;-72
2023/07/30 06:53:33;;;;;;;39.65;7.47;;;;;;;17.41;100.00;155793.31;5083853;28;20573;-73
2023/07/30 06:55:58;;;;;;;35.43;6.13;;;;;;;17.46;100.00;155806.28;5063612;28;20024;-73
2023/07/30 06:58:23;;;;;;;38.00;7.47;;;;;;;17.49;100.00;155812.81;5070266;28;20172;-72
2023/07/30 07:00:49;;;;;;;36.83;6.80;;;;;;;17.55;100.00;155828.47;5088023;28;20498;-74
2023/07/30 07:03:14;;;;;;;41.93;6.83;;;;;;;17.61;100.00;155845.34;5084845;28;20020;-73
2023/07/30 07:05:40;;;;;;;31.63;6.60;;;;;;;17.89;100.00;155916.97;5089132;28;20107;-74
2023/07/30 07:08:05;;;;;;;42.23;7.63;;;;;;;17.94;100.00;155930.00;5085138;28;20028;-73
2023/07/30 07:10:32;;;;;;;35.73;7.43;;;;;;;17.82;100.00;155898.75;5082937;28;20539;-73
2023/07/30 07:12:57;;;;;;;;;;;;;;;17.91;100.00;155922.16;5086300;28;20090;-74
2023/07/30 07:15:22;;;;;;;37.85;6.22;;;;;;;17.95;100.00;155933.91;5059978;28;20402;-73
2023/07/30 07:17:48;;;;;;;34.53;6.73;;;;;;;18.10;100.00;155971.66;5070070;28;20531;-73
2023/07/30 07:20:13;;;;;;;39.07;6.87;;;;;;;18.33;100.00;156032.94;5086649;28;20375;-73
2023/07/30 07:22:39;;;;;;;38.57;6.80;;;;;;;18.52;100.00;156081.13;5070013;28;20388;-73
2023/07/30 07:25:04;;;;;;;27.80;5.63;;;;;;;18.45;100.00;156064.19;5083846;28;20039;-74
2023/07/30 07:27:30;;;;;;;32.43;5.87;;;;;;;19.07;100.00;156225.75;5082656;28;20503;-73
2023/07/30 07:29:56;;;;;;;29.80;6.27;;;;;;;19.57;100.00;156354.81;5085323;28;20447;-73
2023/07/30 07:32:21;;;;;;;21.60;5.73;;;;;;;19.45;100.00;156323.53;5084238;28;20028;-73
2023/07/30 07:34:48;;;;;;;26.67;5.13;;;;;;;19.72;100.00;156393.94;5081919;28;21212;-73
2023/07/30 07:37:16;;;;;;;29.52;5.78;;;;;;;19.25;100.00;156271.41;5082253;28;20044;-74
2023/07/30 07:39:42;;;;;;;30.35;5.40;;;;;;;19.16;100.00;156249.19;5080400;28;20103;-74
2023/07/30 07:42:07;;;;;;;37.60;6.05;;;;;;;19.10;100.00;156232.28;5084782;28;20032;-74
2023/07/30 07:44:33;;;;;;;31.97;5.50;;;;;;;18.94;100.00;156191.84;5083479;28;20027;-74
2023/07/30 07:46:58;;;;;;;32.30;6.43;;;;;;;19.00;100.00;156207.47;5085856;28;20026;-74
2023/07/30 07:49:24;;;;;;;27.40;4.70;;;;;;;18.91;100.00;156184.06;5084449;28;20145;-74
2023/07/30 07:51:49;;;;;;;27.03;4.83;;;;;;;18.97;100.00;156199.69;5090044;28;20372;-74
2023/07/30 07:54:14;;;;;;;30.57;5.83;;;;;;;18.94;100.00;156190.59;5079233;28;20025;-75
2023/07/30 07:56:40;;;;;;;29.53;5.33;;;;;;;18.86;100.00;156169.72;5080796;28;20123;-74
2023/07/30 07:59:05;;;;;;;37.70;6.23;;;;;;;18.53;100.00;156085.06;5063167;28;20104;-74
2023/07/30 08:01:30;;;;;;;30.07;5.53;;;;;;;18.41;100.00;156053.75;5080880;28;20042;-74
2023/07/30 08:03:56;;;;;;;30.77;7.47;;;;;;;18.46;100.00;156066.78;5067919;28;20475;-74
2023/07/30 08:06:21;;;;;;;34.37;6.13;;;;;;;18.35;100.00;156036.84;5060037;28;20451;-74
2023/07/30 08:08:46;;;;;;;28.23;5.47;;;;;;;18.31;100.00;156026.38;5086389;28;20050;-74
2023/07/30 08:11:12;;;;;;;28.30;5.00;;;;;;;18.25;100.00;156010.75;5070893;28;20052;-75
2023/07/30 08:13:37;;;;;;;25.00;5.53;;;;;;;18.03;100.00;155954.72;5069625;28;20386;-74
2023/07/30 08:16:02;;;;;;;26.87;6.00;;;;;;;18.01;100.00;155948.22;5081149;28;20042;-74
2023/07/30 08:18:28;;;;;;;24.07;5.93;;;;;;;17.93;100.00;155927.41;5082689;28;20532;-73
2023/07/30 08:20:54;;;;;;;34.73;7.47;;;;;;;17.88;100.00;155914.38;5065274;28;20032;-72
2023/07/30 08:23:19;;;;;;;29.30;5.40;;;;;;;17.88;100.00;155914.38;5082417;28;20111;-72
2023/07/30 08:25:45;;;;;;;31.77;6.67;;;;;;;17.94;100.00;155931.28;5081402;28;20059;-73
2023/07/30 08:28:10;;;;;;;33.80;6.67;;;;;;;17.97;100.00;155937.78;5079831;28;20040;-72
2023/07/30 08:30:35;;;;;;;27.73;4.83;;;;;;;18.06;100.00;155961.25;5064983;28;20090;-73
2023/07/30 08:33:01;;;;;;;32.33;6.20;;;;;;;18.20;100.00;155999.00;5083200;28;20050;-73
2023/07/30 08:35:29;;;;;;;24.77;5.90;;;;;;;18.18;100.00;155993.81;5083241;28;20031;-72
2023/07/30 08:37:55;;;;;;;40.15;5.90;;;;;;;18.44;100.00;156061.59;5077852;28;20083;-72
2023/07/30 08:40:24;;;;;;;32.53;5.10;;;;;;;18.46;100.00;156065.50;5085196;28;20111;-73
2023/07/30 08:42:53;;;;;;;24.13;5.22;;;;;;;18.68;100.00;156122.81;5092397;28;20077;-73
2023/07/30 08:45:19;;;;;;;27.27;5.20;;;;;;;18.83;100.00;156163.19;5083478;28;20024;-72
2023/07/30 08:47:46;;;;;;;20.47;4.27;;;;;;;19.43;100.00;156318.34;5086168;28;20485;-71
2023/07/30 08:50:12;;;;;;;40.28;5.45;;;;;;;19.28;100.00;156279.22;5086948;28;20020;-72
2023/07/30 08:52:37;;;;;;;21.73;5.40;;;;;;;19.22;100.00;156263.59;5088551;28;20031;-72
2023/07/30 08:55:04;;;;;;;26.73;4.50;;;;;;;19.18;100.00;156254.44;5088769;28;20023;-73
2023/07/30 08:57:30;;;;;;;22.42;4.65;;;;;;;19.46;100.00;156326.16;5087241;28;20040;-72
2023/07/30 09:00:24;;;;;;;23.77;4.03;;;;;;;19.23;100.00;156266.19;5084356;28;20089;-73
2023/07/30 09:02:55;;;;;;;24.45;4.35;;;;;;;19.56;100.00;156352.22;5081805;28;20048;-72
2023/07/30 09:05:20;;;;;;;23.10;5.20;;;;;;;19.79;99.47;156412.22;5084709;28;20526;-72
2023/07/30 09:07:46;;;;;;;24.85;4.60;;;;;;;19.89;98.81;156438.28;5082903;28;20091;-71
2023/07/30 09:10:13;;;;;;;20.00;3.83;;;;;;;20.04;97.06;156477.41;5089268;28;20032;-74
2023/07/30 09:12:39;;;;;;;21.42;4.32;;;;;;;19.91;95.95;156443.50;5068622;28;20024;-74
2023/07/30 09:15:06;;;;;;;15.73;3.80;;;;;;;20.19;95.91;156516.59;5082770;28;20028;-74
2023/07/30 09:17:32;;;;;;;21.38;4.03;;;;;;;20.05;94.79;156481.31;5086040;28;20032;-75
2023/07/30 09:20:03;;;;;;;25.98;4.43;;;;;;;20.20;94.87;156520.50;5086603;28;20120;-73
2023/07/30 09:22:30;;;;;;;16.73;3.33;;;;;;;20.08;93.17;156489.22;5083075;28;20038;-73
2023/07/30 09:24:57;;;;;;;19.13;3.63;;;;;;;20.18;93.03;156515.25;5068166;28;20040;-74
2023/07/30 09:27:26;;;;;;;28.85;5.00;;;;;;;20.45;92.45;156585.75;5084844;28;21011;-73
2023/07/30 09:29:56;;;;;;;21.63;3.58;;;;;;;20.35;91.82;156559.66;5065576;28;20032;-73
2023/07/30 09:32:33;;;;;;;20.48;3.97;;;;;;;20.86;94.16;156692.69;5084051;28;20027;-73
2023/07/30 09:35:06;;;;;;;16.95;3.55;;;;;;;21.35;92.47;156819.38;5080670;28;20050;-73
2023/07/30 09:37:39;;;;;;;20.70;3.55;;;;;;;21.48;89.74;156853.31;5084563;28;20055;-73
2023/07/30 09:40:10;;;;;;;15.18;3.65;;;;;;;21.88;87.97;156957.84;5083992;28;20487;-73
2023/07/30 09:42:39;;;;;;;21.52;4.35;;;;;;;22.11;83.43;157017.91;5065444;28;20398;-74
2023/07/30 09:45:07;;;;;;;15.77;3.53;;;;;;;21.43;84.23;156840.25;5083957;28;20475;-71
2023/07/30 09:47:33;;;;;;;10.00;2.35;;;;;;;20.76;85.25;156665.31;5079564;28;20056;-71
2023/07/30 09:49:59;;;;;;;24.95;3.63;;;;;;;20.53;83.11;156605.28;5081926;28;20024;-70
2023/07/30 09:52:24;;;;;;;12.20;3.00;;;;;;;20.62;80.43;156628.78;5083093;28;20036;-70
2023/07/30 09:54:52;;;;;;;11.33;3.07;;;;;;;20.79;76.75;156673.13;5082589;28;20513;-72
2023/07/30 09:57:17;;;;;;;18.65;3.22;;;;;;;21.61;75.01;156887.28;5079839;28;20080;-70
2023/07/30 09:59:42;;;;;;;19.17;3.10;;;;;;;21.60;71.57;156884.69;5085320;28;20423;-71
2023/07/30 10:02:11;;;;;;;15.27;2.80;;;;;;;21.20;71.24;156780.22;5081859;28;20499;-71
2023/07/30 10:04:42;;;;;;;12.70;2.15;;;;;;;20.79;73.50;156673.13;5086370;28;20059;-70
2023/07/30 10:07:13;;;;;;;17.10;2.67;;;;;;;20.81;72.71;156678.38;5084699;28;20020;-71
2023/07/30 10:09:45;;;;;;;14.30;3.15;;;;;;;20.65;72.24;156636.63;5067220;28;20037;-72
2023/07/30 10:12:15;;;;;;;20.45;2.75;;;;;;;20.86;73.15;156692.69;5065994;28;20229;-72
2023/07/30 10:14:41;;;;;;;12.60;2.35;;;;;;;20.75;73.44;156664.00;5081909;28;20525;-72
2023/07/30 10:17:10;;;;;;;10.32;1.92;;;;;;;20.39;73.74;156568.78;5085253;28;20308;-71
2023/07/30 10:19:35;;;;;;;13.38;3.15;;;;;;;20.38;75.79;156567.44;5085007;28;20564;-71
2023/07/30 10:22:12;;;;;;;10.67;2.30;;;;;;;20.23;77.90;156527.03;5086176;28;20036;-71
2023/07/30 10:24:38;;;;;;;;;;;;;;;20.08;80.02;156487.91;5085035;28;20024;-73
2023/07/30 10:27:12;;;;;;;11.38;2.67;;;;;;;20.35;81.01;156558.31;5084648;28;19957;-73
2023/07/30 10:29:43;;;;;;;9.25;2.45;;;;;;;21.21;77.22;156784.13;5082345;28;21939;-73
2023/07/30 10:32:09;;;;;;;10.45;2.15;;;;;;;21.53;73.35;156866.38;5066728;28;20032;-73
2023/07/30 10:34:45;;;;;;;10.73;2.20;;;;;;;21.08;68.92;156750.16;5085259;28;20035;-74
2023/07/30 10:37:11;;;;;;;12.88;2.72;;;;;;;20.71;68.87;156652.28;5084196;28;20280;-74
2023/07/30 10:39:36;;;;;;;12.83;2.50;;;;;;;21.25;66.21;156794.59;5067309;28;20609;-73
2023/07/30 10:42:01;;;;;;;15.07;2.60;;;;;;;21.70;63.35;156910.78;5083011;28;20230;-73
2023/07/30 10:44:30;;;;;;;12.03;2.37;;;;;;;22.12;61.86;157021.84;5079105;28;20353;-73
2023/07/30 10:46:57;;;;;;;15.35;3.05;;;;;;;22.39;61.76;157092.38;5082329;28;20028;-74
2023/07/30 10:49:23;;;;;;;10.95;2.33;;;;;;;22.55;61.41;157132.91;5064197;28;20059;-74
2023/07/30 10:51:52;;;;;;;24.07;2.80;;;;;;;22.82;60.42;157203.47;5084550;28;20078;-73
2023/07/30 10:54:18;;;;;;;11.85;2.60;;;;;;;23.08;60.26;157271.44;5083368;28;20034;-74
2023/07/30 10:56:44;;;;;;;12.37;2.00;;;;;;;23.54;60.40;157393.03;5084059;28;20020;-74
2023/07/30 10:59:10;;;;;;;8.93;1.90;;;;;;;23.30;59.50;157329.00;5086413;28;20119;-74
2023/07/30 11:01:43;;;;;;;13.60;2.25;;;;;;;22.97;61.19;157244.00;5083319;28;20035;-74
2023/07/30 11:04:16;;;;;;;12.95;2.45;;;;;;;22.70;62.08;157173.44;5083266;28;20403;-74
2023/07/30 11:06:49;;;;;;;9.13;1.75;;;;;;;22.35;62.06;157080.63;5084402;28;20423;-74